Forside
METAR-TAF:

METAR-TAF

Lufthavne :

Yap, Mikronesien

Breddekreds: 09-29N, længdekreds: 138-05E, højde: 28 m

Aktuelle vejr

Denne rapport blev lavet for 26 minutter siden, kl. 01:53 UTC
Vind 8 kt fra nordnordøst
Temperatur 28°C
Fugtighed 84%
Tryk 1013 hPa
Sigt: 19.3 km
Nogle få skyer i en højde af 1600 ft, Cumulonimbus.
Spredte skyer i en højde af 13000 ft
Overskyet i en højde af 30000 ft

METAR: PTYA 210153Z 03008KT 12SM FEW016CB SCT130 OVC300 28/25 A2991 RMK SHRAB18E35 CB NE AND SW-W MOV SW SLP129 T02790254

Tid: 12:19 (02:19 UTC)

Vejrudsigter

Denne rapport blev lavet for 2 timer og 37 minutter siden, kl. 23:42 UTC
Foreløbig gælder fra 21 på 00 UTC til 21 på 24 UTC
Vind 13 kt fra nordøst
Sigt: 10 km
Spredte skyer i en højde af 1600 ft
Spredte skyer i en højde af 10000 ft
byger i nærheden

TAF: PTYA 202342Z 2100/2124 05013KT P6SM VCSH SCT016 SCT100

Vejrobservationer og prognoser fra mere end 4000 lufthavne (METAR og TAF).

De gule og røde prikker repræsenterer de meteorologiske stationer.

Flyt musen over at se navnet på stationen.

Så klik over at se vejr observationer og prognoser.

At skifte det kort: Klik på de grønne knapper med et sort kors for at zoome ind; på den grønne knap med en bindestreg for at zoome ud; eller på de grønne pile for tilstødende kort.


METAR-TAF: